Time;durP1;ratioP1;P1;durP2;ratioP2;P2;SDS_P1;SDS_P2;PMS_P1;PMS_P2;Temp;Humidity;BMP_temperature;BMP_pressure;BME280_temperature;BME280_humidity;BME280_pressure;Samples;Min_cycle;Max_cycle;Signal;HPM_P1;HPM_P2
2022/10/10 00:00:00;;;;;;;0.9;0.9;;;;;;;10.2;100.0;101240;;;;
2022/10/10 00:01:00;;;;;;;0.9;0.9;;;;;;;10.2;100.0;101240;;;;
2022/10/10 00:02:00;;;;;;;0.9;0.9;;;;;;;10.2;100.0;101240;;;;
2022/10/10 00:03:00;;;;;;;0.9;0.9;;;;;;;10.1;100.0;101240;;;;
2022/10/10 00:04:00;;;;;;;0.9;0.9;;;;;;;10.1;100.0;101240;;;;
2022/10/10 00:05:00;;;;;;;0.9;0.9;;;;;;;10.0;100.0;101240;;;;
2022/10/10 00:06:00;;;;;;;0.9;0.9;;;;;;;10.0;100.0;101240;;;;
2022/10/10 00:07:00;;;;;;;0.9;0.9;;;;;;;10.1;100.0;101240;;;;
2022/10/10 00:08:00;;;;;;;0.9;0.9;;;;;;;10.1;100.0;101240;;;;
2022/10/10 00:09:00;;;;;;;0.9;0.9;;;;;;;10.1;100.0;101240;;;;
2022/10/10 00:10:00;;;;;;;0.9;0.9;;;;;;;10.1;100.0;101240;;;;
2022/10/10 00:11:00;;;;;;;0.9;0.9;;;;;;;10.1;100.0;101240;;;;
2022/10/10 00:12:00;;;;;;;0.9;0.9;;;;;;;10.1;100.0;101240;;;;
2022/10/10 00:13:00;;;;;;;0.9;0.9;;;;;;;10.0;100.0;101240;;;;
2022/10/10 00:14:00;;;;;;;0.9;0.9;;;;;;;10.0;100.0;101240;;;;
2022/10/10 00:15:00;;;;;;;0.9;0.9;;;;;;;10.0;100.0;101240;;;;
2022/10/10 00:16:00;;;;;;;1.0;1.0;;;;;;;10.0;100.0;101240;;;;
2022/10/10 00:17:00;;;;;;;1.0;1.0;;;;;;;10.0;100.0;101230;;;;
2022/10/10 00:18:00;;;;;;;1.0;1.0;;;;;;;10.0;100.0;101230;;;;
2022/10/10 00:19:00;;;;;;;1.0;1.0;;;;;;;9.9;100.0;101230;;;;
2022/10/10 00:20:00;;;;;;;1.0;1.0;;;;;;;9.9;100.0;101230;;;;
2022/10/10 00:21:00;;;;;;;1.0;1.0;;;;;;;9.9;100.0;101230;;;;
2022/10/10 00:22:00;;;;;;;1.0;1.0;;;;;;;9.9;100.0;101230;;;;
2022/10/10 00:23:00;;;;;;;1.0;1.0;;;;;;;9.9;100.0;101230;;;;
2022/10/10 00:24:00;;;;;;;1.0;1.0;;;;;;;9.9;100.0;101230;;;;
2022/10/10 00:25:00;;;;;;;1.0;1.0;;;;;;;9.8;100.0;101230;;;;
2022/10/10 00:26:00;;;;;;;1.0;1.0;;;;;;;9.8;100.0;101230;;;;
2022/10/10 00:27:00;;;;;;;1.0;1.0;;;;;;;9.9;100.0;101230;;;;
2022/10/10 00:28:01;;;;;;;1.0;1.0;;;;;;;9.9;100.0;101230;;;;
2022/10/10 00:29:00;;;;;;;1.0;1.0;;;;;;;9.8;100.0;101230;;;;
2022/10/10 00:30:00;;;;;;;1.0;1.0;;;;;;;9.8;100.0;101230;;;;
2022/10/10 00:31:00;;;;;;;1.0;1.0;;;;;;;9.9;100.0;101230;;;;
2022/10/10 00:32:00;;;;;;;1.0;1.0;;;;;;;9.9;100.0;101230;;;;
2022/10/10 00:33:00;;;;;;;1.0;1.0;;;;;;;9.9;100.0;101230;;;;
2022/10/10 00:34:00;;;;;;;1.0;1.0;;;;;;;9.9;100.0;101230;;;;
2022/10/10 00:35:00;;;;;;;1.0;1.0;;;;;;;9.9;100.0;101230;;;;
2022/10/10 00:36:00;;;;;;;0.9;0.9;;;;;;;9.9;100.0;101230;;;;
2022/10/10 00:37:00;;;;;;;0.9;0.9;;;;;;;9.9;100.0;101230;;;;
2022/10/10 00:38:00;;;;;;;0.9;0.9;;;;;;;9.9;100.0;101230;;;;
2022/10/10 00:39:00;;;;;;;0.9;0.9;;;;;;;9.9;100.0;101220;;;;
2022/10/10 00:40:00;;;;;;;0.9;0.9;;;;;;;9.9;100.0;101220;;;;
2022/10/10 00:41:00;;;;;;;0.9;0.9;;;;;;;9.9;100.0;101220;;;;
2022/10/10 00:42:00;;;;;;;0.9;0.9;;;;;;;9.9;100.0;101220;;;;
2022/10/10 00:43:00;;;;;;;0.9;0.9;;;;;;;9.9;100.0;101220;;;;
2022/10/10 00:44:02;;;;;;;0.9;0.9;;;;;;;9.9;100.0;101220;;;;
2022/10/10 00:45:10;;;;;;;0.9;0.9;;;;;;;9.9;100.0;101220;;;;
2022/10/10 00:46:00;;;;;;;0.9;0.9;;;;;;;9.9;100.0;101220;;;;
2022/10/10 00:47:00;;;;;;;0.9;0.9;;;;;;;9.8;100.0;101220;;;;
2022/10/10 00:48:03;;;;;;;0.9;0.9;;;;;;;9.8;100.0;101220;;;;
2022/10/10 00:49:01;;;;;;;0.9;0.9;;;;;;;9.8;100.0;101220;;;;
2022/10/10 00:50:00;;;;;;;0.9;0.9;;;;;;;9.8;100.0;101220;;;;
2022/10/10 00:51:02;;;;;;;0.9;0.9;;;;;;;9.8;100.0;101210;;;;
2022/10/10 00:52:00;;;;;;;0.9;0.9;;;;;;;9.8;100.0;101210;;;;
2022/10/10 00:53:02;;;;;;;0.9;0.9;;;;;;;9.8;100.0;101210;;;;
2022/10/10 00:54:01;;;;;;;0.9;0.9;;;;;;;9.8;100.0;101210;;;;
2022/10/10 00:55:00;;;;;;;0.9;0.9;;;;;;;9.5;100.0;101220;;;;
2022/10/10 00:56:01;;;;;;;1.5;1.4;;;;;;;9.5;100.0;101220;;;;
2022/10/10 00:57:04;;;;;;;1.5;1.4;;;;;;;9.7;100.0;101220;;;;
2022/10/10 00:58:00;;;;;;;1.5;1.4;;;;;;;9.7;100.0;101220;;;;
2022/10/10 00:59:03;;;;;;;1.5;1.4;;;;;;;9.7;100.0;101210;;;;
2022/10/10 01:00:00;;;;;;;1.5;1.4;;;;;;;9.7;100.0;101210;;;;
2022/10/10 01:01:00;;;;;;;1.5;1.4;;;;;;;9.7;100.0;101210;;;;
2022/10/10 01:02:00;;;;;;;1.5;1.4;;;;;;;9.7;100.0;101210;;;;
2022/10/10 01:03:00;;;;;;;1.5;1.4;;;;;;;9.7;100.0;101210;;;;
2022/10/10 01:04:01;;;;;;;1.5;1.4;;;;;;;9.7;100.0;101210;;;;
2022/10/10 01:05:00;;;;;;;1.5;1.4;;;;;;;9.7;100.0;101210;;;;
2022/10/10 01:06:00;;;;;;;1.5;1.4;;;;;;;9.7;100.0;101210;;;;
2022/10/10 01:07:02;;;;;;;1.5;1.4;;;;;;;9.6;100.0;101200;;;;
2022/10/10 01:08:01;;;;;;;1.5;1.4;;;;;;;9.6;100.0;101200;;;;
2022/10/10 01:09:00;;;;;;;1.5;1.4;;;;;;;9.6;100.0;101200;;;;
2022/10/10 01:10:03;;;;;;;1.5;1.4;;;;;;;9.6;100.0;101200;;;;
2022/10/10 01:11:00;;;;;;;1.5;1.4;;;;;;;9.5;100.0;101200;;;;
2022/10/10 01:12:05;;;;;;;1.5;1.4;;;;;;;9.5;100.0;101200;;;;
2022/10/10 01:13:06;;;;;;;1.5;1.4;;;;;;;9.5;100.0;101200;;;;
2022/10/10 01:14:07;;;;;;;1.5;1.4;;;;;;;9.5;100.0;101200;;;;
2022/10/10 01:15:05;;;;;;;1.5;1.4;;;;;;;9.5;100.0;101200;;;;
2022/10/10 01:16:05;;;;;;;1.0;1.0;;;;;;;9.5;100.0;101200;;;;
2022/10/10 01:17:05;;;;;;;1.0;1.0;;;;;;;9.5;100.0;101200;;;;
2022/10/10 01:18:05;;;;;;;1.0;1.0;;;;;;;9.5;100.0;101200;;;;
2022/10/10 01:19:09;;;;;;;1.0;1.0;;;;;;;9.6;100.0;101200;;;;
2022/10/10 01:20:00;;;;;;;1.0;1.0;;;;;;;9.6;100.0;101200;;;;
2022/10/10 01:21:00;;;;;;;1.0;1.0;;;;;;;9.5;100.0;101190;;;;
2022/10/10 01:22:09;;;;;;;1.0;1.0;;;;;;;9.5;100.0;101190;;;;
2022/10/10 01:23:10;;;;;;;1.0;1.0;;;;;;;9.5;100.0;101200;;;;
2022/10/10 01:24:01;;;;;;;1.0;1.0;;;;;;;9.5;100.0;101200;;;;
2022/10/10 01:25:10;;;;;;;1.0;1.0;;;;;;;9.5;100.0;101200;;;;
2022/10/10 01:26:10;;;;;;;1.0;1.0;;;;;;;9.5;100.0;101200;;;;
2022/10/10 01:27:00;;;;;;;1.0;1.0;;;;;;;9.5;100.0;101190;;;;
2022/10/10 01:28:10;;;;;;;1.0;1.0;;;;;;;9.5;100.0;101190;;;;
2022/10/10 01:29:10;;;;;;;1.0;1.0;;;;;;;9.5;100.0;101200;;;;
2022/10/10 01:30:10;;;;;;;1.0;1.0;;;;;;;9.5;100.0;101200;;;;
2022/10/10 01:31:00;;;;;;;1.0;1.0;;;;;;;9.4;100.0;101200;;;;
2022/10/10 01:32:04;;;;;;;1.0;1.0;;;;;;;9.4;100.0;101200;;;;
2022/10/10 01:33:03;;;;;;;1.0;1.0;;;;;;;9.4;100.0;101190;;;;
2022/10/10 01:34:10;;;;;;;1.0;1.0;;;;;;;9.4;100.0;101190;;;;
2022/10/10 01:35:01;;;;;;;1.0;1.0;;;;;;;9.4;100.0;101190;;;;
2022/10/10 01:36:01;;;;;;;1.1;1.1;;;;;;;9.4;100.0;101190;;;;
2022/10/10 01:37:07;;;;;;;1.1;1.1;;;;;;;9.3;100.0;101190;;;;
2022/10/10 01:38:10;;;;;;;1.1;1.1;;;;;;;9.3;100.0;101190;;;;
2022/10/10 01:39:06;;;;;;;1.1;1.1;;;;;;;9.3;100.0;101190;;;;
2022/10/10 01:40:06;;;;;;;1.1;1.1;;;;;;;9.3;100.0;101190;;;;
2022/10/10 01:41:10;;;;;;;1.1;1.1;;;;;;;9.4;100.0;101180;;;;
2022/10/10 01:42:05;;;;;;;1.1;1.1;;;;;;;9.4;100.0;101180;;;;
2022/10/10 01:43:02;;;;;;;1.1;1.1;;;;;;;9.4;100.0;101180;;;;
2022/10/10 01:44:00;;;;;;;1.1;1.1;;;;;;;9.4;100.0;101180;;;;
2022/10/10 01:45:00;;;;;;;1.1;1.1;;;;;;;9.4;100.0;101180;;;;
2022/10/10 01:46:07;;;;;;;1.1;1.1;;;;;;;9.4;100.0;101180;;;;
2022/10/10 01:47:00;;;;;;;1.1;1.1;;;;;;;9.3;100.0;101180;;;;
2022/10/10 01:48:01;;;;;;;1.1;1.1;;;;;;;9.3;100.0;101180;;;;
2022/10/10 01:49:00;;;;;;;1.1;1.1;;;;;;;9.3;100.0;101180;;;;
2022/10/10 01:50:02;;;;;;;1.1;1.1;;;;;;;9.3;100.0;101180;;;;
2022/10/10 01:51:03;;;;;;;1.1;1.1;;;;;;;9.4;100.0;101180;;;;
2022/10/10 01:52:10;;;;;;;1.1;1.1;;;;;;;9.4;100.0;101180;;;;
2022/10/10 01:53:00;;;;;;;1.1;1.1;;;;;;;9.3;100.0;101180;;;;
2022/10/10 01:54:01;;;;;;;1.1;1.1;;;;;;;9.3;100.0;101180;;;;
2022/10/10 01:55:10;;;;;;;1.2;1.2;;;;;;;9.2;100.0;101180;;;;
2022/10/10 01:56:00;;;;;;;1.2;1.2;;;;;;;9.2;100.0;101180;;;;
2022/10/10 01:57:10;;;;;;;1.2;1.2;;;;;;;9.3;100.0;101170;;;;
2022/10/10 01:58:10;;;;;;;1.2;1.2;;;;;;;9.3;100.0;101170;;;;
2022/10/10 01:59:07;;;;;;;1.2;1.2;;;;;;;9.3;100.0;101170;;;;
2022/10/10 02:00:04;;;;;;;1.2;1.2;;;;;;;9.3;100.0;101170;;;;
2022/10/10 02:01:08;;;;;;;1.2;1.2;;;;;;;9.3;100.0;101170;;;;
2022/10/10 02:02:00;;;;;;;1.2;1.2;;;;;;;9.3;100.0;101170;;;;
2022/10/10 02:03:10;;;;;;;1.2;1.2;;;;;;;9.4;100.0;101170;;;;
2022/10/10 02:04:04;;;;;;;1.2;1.2;;;;;;;9.4;100.0;101170;;;;
2022/10/10 02:05:03;;;;;;;1.2;1.2;;;;;;;9.3;100.0;101160;;;;
2022/10/10 02:06:06;;;;;;;1.2;1.2;;;;;;;9.3;100.0;101160;;;;
2022/10/10 02:07:04;;;;;;;1.2;1.2;;;;;;;9.3;100.0;101160;;;;
2022/10/10 02:08:07;;;;;;;1.2;1.2;;;;;;;9.3;100.0;101160;;;;
2022/10/10 02:09:05;;;;;;;1.2;1.2;;;;;;;9.1;100.0;101160;;;;
2022/10/10 02:10:01;;;;;;;1.2;1.2;;;;;;;9.1;100.0;101160;;;;
2022/10/10 02:11:02;;;;;;;1.2;1.2;;;;;;;9.2;100.0;101150;;;;
2022/10/10 02:12:00;;;;;;;1.2;1.2;;;;;;;9.2;100.0;101150;;;;
2022/10/10 02:13:01;;;;;;;1.2;1.2;;;;;;;9.2;100.0;101150;;;;
2022/10/10 02:14:05;;;;;;;1.2;1.2;;;;;;;9.2;100.0;101150;;;;
2022/10/10 02:15:06;;;;;;;1.1;1.1;;;;;;;9.2;100.0;101150;;;;
2022/10/10 02:16:01;;;;;;;1.1;1.1;;;;;;;9.2;100.0;101150;;;;
2022/10/10 02:17:02;;;;;;;1.1;1.1;;;;;;;9.2;100.0;101150;;;;
2022/10/10 02:18:00;;;;;;;1.1;1.1;;;;;;;9.2;100.0;101150;;;;
2022/10/10 02:19:01;;;;;;;1.1;1.1;;;;;;;9.2;100.0;101150;;;;
2022/10/10 02:20:00;;;;;;;1.1;1.1;;;;;;;9.2;100.0;101150;;;;
2022/10/10 02:21:02;;;;;;;1.1;1.1;;;;;;;9.1;100.0;101150;;;;
2022/10/10 02:22:00;;;;;;;1.1;1.1;;;;;;;9.1;100.0;101150;;;;
2022/10/10 02:23:00;;;;;;;1.1;1.1;;;;;;;9.1;100.0;101140;;;;
2022/10/10 02:24:02;;;;;;;1.1;1.1;;;;;;;9.1;100.0;101140;;;;
2022/10/10 02:25:00;;;;;;;1.1;1.1;;;;;;;9.1;100.0;101150;;;;
2022/10/10 02:26:00;;;;;;;1.1;1.1;;;;;;;9.1;100.0;101150;;;;
2022/10/10 02:27:04;;;;;;;1.1;1.1;;;;;;;9.1;100.0;101150;;;;
2022/10/10 02:28:10;;;;;;;1.1;1.1;;;;;;;9.1;100.0;101150;;;;
2022/10/10 02:29:04;;;;;;;1.1;1.1;;;;;;;9.1;100.0;101140;;;;
2022/10/10 02:30:01;;;;;;;1.1;1.1;;;;;;;9.1;100.0;101140;;;;
2022/10/10 02:31:03;;;;;;;1.1;1.1;;;;;;;9.1;100.0;101140;;;;
2022/10/10 02:32:01;;;;;;;1.1;1.1;;;;;;;9.1;100.0;101140;;;;
2022/10/10 02:33:02;;;;;;;1.1;1.1;;;;;;;9.1;100.0;101140;;;;
2022/10/10 02:34:05;;;;;;;1.1;1.1;;;;;;;9.1;100.0;101140;;;;
2022/10/10 02:35:04;;;;;;;1.0;1.0;;;;;;;9.2;100.0;101140;;;;
2022/10/10 02:36:00;;;;;;;1.0;1.0;;;;;;;9.2;100.0;101140;;;;
2022/10/10 02:37:01;;;;;;;1.0;1.0;;;;;;;9.0;100.0;101140;;;;
2022/10/10 02:38:01;;;;;;;1.0;1.0;;;;;;;9.0;100.0;101140;;;;
2022/10/10 02:39:01;;;;;;;1.0;1.0;;;;;;;9.1;100.0;101140;;;;
2022/10/10 02:40:01;;;;;;;1.0;1.0;;;;;;;9.1;100.0;101140;;;;
2022/10/10 02:41:02;;;;;;;1.0;1.0;;;;;;;9.1;100.0;101140;;;;
2022/10/10 02:42:01;;;;;;;1.0;1.0;;;;;;;9.1;100.0;101140;;;;
2022/10/10 02:43:02;;;;;;;1.0;1.0;;;;;;;9.0;100.0;101140;;;;
2022/10/10 02:44:00;;;;;;;1.0;1.0;;;;;;;9.0;100.0;101140;;;;
2022/10/10 02:45:01;;;;;;;1.0;1.0;;;;;;;9.0;100.0;101140;;;;
2022/10/10 02:46:01;;;;;;;1.0;1.0;;;;;;;9.0;100.0;101140;;;;
2022/10/10 02:47:00;;;;;;;1.0;1.0;;;;;;;8.9;100.0;101130;;;;
2022/10/10 02:48:00;;;;;;;1.0;1.0;;;;;;;8.9;100.0;101130;;;;
2022/10/10 02:49:00;;;;;;;1.0;1.0;;;;;;;8.9;100.0;101130;;;;
2022/10/10 02:50:00;;;;;;;1.0;1.0;;;;;;;8.9;100.0;101130;;;;
2022/10/10 02:51:00;;;;;;;1.0;1.0;;;;;;;8.8;100.0;101130;;;;
2022/10/10 02:52:00;;;;;;;1.0;1.0;;;;;;;8.8;100.0;101130;;;;
2022/10/10 02:53:00;;;;;;;1.0;1.0;;;;;;;8.8;100.0;101120;;;;
2022/10/10 02:54:00;;;;;;;1.0;1.0;;;;;;;8.8;100.0;101120;;;;
2022/10/10 02:55:00;;;;;;;1.1;1.1;;;;;;;8.9;100.0;101120;;;;
2022/10/10 02:56:00;;;;;;;1.1;1.1;;;;;;;8.9;100.0;101120;;;;
2022/10/10 02:57:00;;;;;;;1.1;1.1;;;;;;;8.9;100.0;101120;;;;
2022/10/10 02:58:00;;;;;;;1.1;1.1;;;;;;;8.9;100.0;101120;;;;
2022/10/10 02:59:00;;;;;;;1.1;1.1;;;;;;;9.0;100.0;101120;;;;
2022/10/10 03:00:00;;;;;;;1.1;1.1;;;;;;;9.0;100.0;101120;;;;
2022/10/10 03:01:00;;;;;;;1.1;1.1;;;;;;;8.9;100.0;101120;;;;
2022/10/10 03:02:00;;;;;;;1.1;1.1;;;;;;;8.9;100.0;101120;;;;
2022/10/10 03:03:00;;;;;;;1.1;1.1;;;;;;;8.9;100.0;101120;;;;
2022/10/10 03:04:01;;;;;;;1.1;1.1;;;;;;;8.9;100.0;101120;;;;
2022/10/10 03:05:00;;;;;;;1.1;1.1;;;;;;;8.8;100.0;101110;;;;
2022/10/10 03:06:01;;;;;;;1.1;1.1;;;;;;;8.8;100.0;101110;;;;
2022/10/10 03:07:00;;;;;;;1.1;1.1;;;;;;;8.8;100.0;101110;;;;
2022/10/10 03:08:00;;;;;;;1.1;1.1;;;;;;;8.8;100.0;101110;;;;
2022/10/10 03:09:00;;;;;;;1.1;1.1;;;;;;;8.9;100.0;101110;;;;
2022/10/10 03:10:00;;;;;;;1.1;1.1;;;;;;;8.9;100.0;101110;;;;
2022/10/10 03:11:00;;;;;;;1.1;1.1;;;;;;;8.8;100.0;101110;;;;
2022/10/10 03:12:00;;;;;;;1.1;1.1;;;;;;;8.8;100.0;101110;;;;
2022/10/10 03:13:00;;;;;;;1.1;1.1;;;;;;;8.8;100.0;101110;;;;
2022/10/10 03:14:00;;;;;;;1.1;1.1;;;;;;;8.8;100.0;101110;;;;
2022/10/10 03:15:00;;;;;;;1.2;1.2;;;;;;;8.8;100.0;101110;;;;
2022/10/10 03:16:00;;;;;;;1.2;1.2;;;;;;;8.8;100.0;101110;;;;
2022/10/10 03:17:00;;;;;;;1.2;1.2;;;;;;;8.7;100.0;101110;;;;
2022/10/10 03:18:00;;;;;;;1.2;1.2;;;;;;;8.7;100.0;101110;;;;
2022/10/10 03:19:01;;;;;;;1.2;1.2;;;;;;;8.7;100.0;101110;;;;
2022/10/10 03:20:00;;;;;;;1.2;1.2;;;;;;;8.7;100.0;101110;;;;
2022/10/10 03:21:00;;;;;;;1.2;1.2;;;;;;;8.6;100.0;101110;;;;
2022/10/10 03:22:00;;;;;;;1.2;1.2;;;;;;;8.6;100.0;101110;;;;
2022/10/10 03:23:00;;;;;;;1.2;1.2;;;;;;;8.6;100.0;101120;;;;
2022/10/10 03:24:00;;;;;;;1.2;1.2;;;;;;;8.6;100.0;101120;;;;
2022/10/10 03:25:00;;;;;;;1.2;1.2;;;;;;;8.7;100.0;101110;;;;
2022/10/10 03:26:00;;;;;;;1.2;1.2;;;;;;;8.7;100.0;101110;;;;
2022/10/10 03:27:00;;;;;;;1.2;1.2;;;;;;;8.6;100.0;101110;;;;
2022/10/10 03:28:00;;;;;;;1.2;1.2;;;;;;;8.6;100.0;101110;;;;
2022/10/10 03:29:01;;;;;;;1.2;1.2;;;;;;;8.7;100.0;101110;;;;
2022/10/10 03:30:00;;;;;;;1.2;1.2;;;;;;;8.7;100.0;101110;;;;
2022/10/10 03:31:00;;;;;;;1.2;1.2;;;;;;;8.6;100.0;101110;;;;
2022/10/10 03:32:00;;;;;;;1.2;1.2;;;;;;;8.6;100.0;101110;;;;
2022/10/10 03:33:00;;;;;;;1.2;1.2;;;;;;;8.6;100.0;101110;;;;
2022/10/10 03:34:00;;;;;;;1.2;1.2;;;;;;;8.6;100.0;101110;;;;
2022/10/10 03:35:00;;;;;;;1.0;1.0;;;;;;;8.5;100.0;101110;;;;
2022/10/10 03:36:00;;;;;;;1.0;1.0;;;;;;;8.5;100.0;101110;;;;
2022/10/10 03:37:00;;;;;;;1.0;1.0;;;;;;;8.7;100.0;101110;;;;
2022/10/10 03:38:00;;;;;;;1.0;1.0;;;;;;;8.7;100.0;101110;;;;
2022/10/10 03:39:00;;;;;;;1.0;1.0;;;;;;;8.5;100.0;101110;;;;
2022/10/10 03:40:00;;;;;;;1.0;1.0;;;;;;;8.5;100.0;101110;;;;
2022/10/10 03:41:00;;;;;;;1.0;1.0;;;;;;;8.6;100.0;101110;;;;
2022/10/10 03:42:00;;;;;;;1.0;1.0;;;;;;;8.6;100.0;101110;;;;
2022/10/10 03:43:00;;;;;;;1.0;1.0;;;;;;;8.6;100.0;101110;;;;
2022/10/10 03:44:00;;;;;;;1.0;1.0;;;;;;;8.6;100.0;101110;;;;
2022/10/10 03:45:00;;;;;;;1.0;1.0;;;;;;;8.6;100.0;101110;;;;
2022/10/10 03:46:00;;;;;;;1.0;1.0;;;;;;;8.6;100.0;101110;;;;
2022/10/10 03:47:00;;;;;;;1.0;1.0;;;;;;;8.6;100.0;101110;;;;
2022/10/10 03:48:00;;;;;;;1.0;1.0;;;;;;;8.6;100.0;101110;;;;
2022/10/10 03:49:00;;;;;;;1.0;1.0;;;;;;;8.6;100.0;101110;;;;
2022/10/10 03:50:00;;;;;;;1.0;1.0;;;;;;;8.6;100.0;101110;;;;
2022/10/10 03:51:00;;;;;;;1.0;1.0;;;;;;;8.7;100.0;101110;;;;
2022/10/10 03:52:00;;;;;;;1.0;1.0;;;;;;;8.7;100.0;101110;;;;
2022/10/10 03:53:00;;;;;;;1.0;1.0;;;;;;;8.5;100.0;101110;;;;
2022/10/10 03:54:00;;;;;;;1.0;1.0;;;;;;;8.5;100.0;101110;;;;
2022/10/10 03:55:00;;;;;;;1.4;1.4;;;;;;;8.6;100.0;101110;;;;
2022/10/10 03:56:00;;;;;;;1.4;1.4;;;;;;;8.6;100.0;101110;;;;
2022/10/10 03:57:00;;;;;;;1.4;1.4;;;;;;;8.4;100.0;101110;;;;
2022/10/10 03:58:00;;;;;;;1.4;1.4;;;;;;;8.4;100.0;101110;;;;
2022/10/10 03:59:02;;;;;;;1.4;1.4;;;;;;;8.5;100.0;101110;;;;
2022/10/10 04:00:00;;;;;;;1.4;1.4;;;;;;;8.5;100.0;101110;;;;
2022/10/10 04:01:00;;;;;;;1.4;1.4;;;;;;;8.6;100.0;101110;;;;
2022/10/10 04:02:00;;;;;;;1.4;1.4;;;;;;;8.6;100.0;101110;;;;
2022/10/10 04:03:04;;;;;;;1.4;1.4;;;;;;;8.4;100.0;101110;;;;
2022/10/10 04:04:00;;;;;;;1.4;1.4;;;;;;;8.4;100.0;101110;;;;
2022/10/10 04:05:00;;;;;;;1.4;1.4;;;;;;;8.4;100.0;101110;;;;
2022/10/10 04:06:00;;;;;;;1.4;1.4;;;;;;;8.4;100.0;101110;;;;
2022/10/10 04:07:00;;;;;;;1.4;1.4;;;;;;;8.5;100.0;101110;;;;
2022/10/10 04:08:00;;;;;;;1.4;1.4;;;;;;;8.5;100.0;101110;;;;
2022/10/10 04:09:00;;;;;;;1.4;1.4;;;;;;;8.5;100.0;101110;;;;
2022/10/10 04:10:00;;;;;;;1.4;1.4;;;;;;;8.5;100.0;101110;;;;
2022/10/10 04:11:00;;;;;;;1.4;1.4;;;;;;;8.4;100.0;101110;;;;
2022/10/10 04:12:00;;;;;;;1.4;1.4;;;;;;;8.4;100.0;101110;;;;
2022/10/10 04:13:00;;;;;;;1.4;1.4;;;;;;;8.5;100.0;101110;;;;
2022/10/10 04:14:00;;;;;;;1.4;1.4;;;;;;;8.5;100.0;101110;;;;
2022/10/10 04:15:00;;;;;;;1.2;1.2;;;;;;;8.6;100.0;101100;;;;
2022/10/10 04:16:00;;;;;;;1.2;1.2;;;;;;;8.6;100.0;101100;;;;
2022/10/10 04:17:03;;;;;;;1.2;1.2;;;;;;;8.5;100.0;101100;;;;
2022/10/10 04:18:00;;;;;;;1.2;1.2;;;;;;;8.5;100.0;101100;;;;
2022/10/10 04:19:00;;;;;;;1.2;1.2;;;;;;;8.5;100.0;101100;;;;
2022/10/10 04:20:00;;;;;;;1.2;1.2;;;;;;;8.5;100.0;101100;;;;
2022/10/10 04:21:00;;;;;;;1.2;1.2;;;;;;;8.5;100.0;101100;;;;
2022/10/10 04:22:00;;;;;;;1.2;1.2;;;;;;;8.5;100.0;101100;;;;
2022/10/10 04:23:00;;;;;;;1.2;1.2;;;;;;;8.4;100.0;101110;;;;
2022/10/10 04:24:00;;;;;;;1.2;1.2;;;;;;;8.4;100.0;101110;;;;
2022/10/10 04:25:00;;;;;;;1.2;1.2;;;;;;;8.3;100.0;101110;;;;
2022/10/10 04:26:00;;;;;;;1.2;1.2;;;;;;;8.3;100.0;101110;;;;
2022/10/10 04:27:00;;;;;;;1.2;1.2;;;;;;;8.3;100.0;101110;;;;
2022/10/10 04:28:01;;;;;;;1.2;1.2;;;;;;;8.3;100.0;101110;;;;
2022/10/10 04:29:00;;;;;;;1.2;1.2;;;;;;;8.3;100.0;101110;;;;
2022/10/10 04:30:00;;;;;;;1.2;1.2;;;;;;;8.3;100.0;101110;;;;
2022/10/10 04:31:00;;;;;;;1.2;1.2;;;;;;;8.3;100.0;101100;;;;
2022/10/10 04:32:00;;;;;;;1.2;1.2;;;;;;;8.3;100.0;101100;;;;
2022/10/10 04:33:00;;;;;;;1.2;1.2;;;;;;;8.3;100.0;101100;;;;
2022/10/10 04:34:00;;;;;;;1.2;1.2;;;;;;;8.3;100.0;101100;;;;
2022/10/10 04:35:00;;;;;;;1.3;1.3;;;;;;;8.3;100.0;101100;;;;
2022/10/10 04:36:00;;;;;;;1.3;1.3;;;;;;;8.3;100.0;101100;;;;
2022/10/10 04:37:00;;;;;;;1.3;1.3;;;;;;;8.4;100.0;101100;;;;
2022/10/10 04:38:00;;;;;;;1.3;1.3;;;;;;;8.4;100.0;101100;;;;
2022/10/10 04:39:00;;;;;;;1.3;1.3;;;;;;;8.2;100.0;101100;;;;
2022/10/10 04:40:00;;;;;;;1.3;1.3;;;;;;;8.2;100.0;101100;;;;
2022/10/10 04:41:00;;;;;;;1.3;1.3;;;;;;;8.2;100.0;101100;;;;
2022/10/10 04:42:00;;;;;;;1.3;1.3;;;;;;;8.2;100.0;101100;;;;
2022/10/10 04:43:00;;;;;;;1.3;1.3;;;;;;;8.2;100.0;101110;;;;
2022/10/10 04:44:00;;;;;;;1.3;1.3;;;;;;;8.2;100.0;101110;;;;
2022/10/10 04:45:00;;;;;;;1.3;1.3;;;;;;;8.2;100.0;101110;;;;
2022/10/10 04:46:00;;;;;;;1.3;1.3;;;;;;;8.2;100.0;101110;;;;
2022/10/10 04:47:00;;;;;;;1.3;1.3;;;;;;;8.2;100.0;101100;;;;
2022/10/10 04:48:00;;;;;;;1.3;1.3;;;;;;;8.2;100.0;101100;;;;
2022/10/10 04:49:00;;;;;;;1.3;1.3;;;;;;;8.2;100.0;101100;;;;
2022/10/10 04:50:00;;;;;;;1.3;1.3;;;;;;;8.2;100.0;101100;;;;
2022/10/10 04:51:00;;;;;;;1.3;1.3;;;;;;;8.1;100.0;101100;;;;
2022/10/10 04:52:00;;;;;;;1.3;1.3;;;;;;;8.1;100.0;101100;;;;
2022/10/10 04:53:00;;;;;;;1.3;1.3;;;;;;;8.1;100.0;101110;;;;
2022/10/10 04:54:00;;;;;;;1.3;1.3;;;;;;;8.1;100.0;101110;;;;
2022/10/10 04:55:00;;;;;;;2.1;1.9;;;;;;;8.1;100.0;101100;;;;
2022/10/10 04:56:00;;;;;;;2.1;1.9;;;;;;;8.1;100.0;101100;;;;
2022/10/10 04:57:00;;;;;;;2.1;1.9;;;;;;;8.1;100.0;101110;;;;
2022/10/10 04:58:00;;;;;;;2.1;1.9;;;;;;;8.1;100.0;101110;;;;
2022/10/10 04:59:00;;;;;;;2.1;1.9;;;;;;;8.1;100.0;101100;;;;
2022/10/10 05:00:00;;;;;;;2.1;1.9;;;;;;;8.1;100.0;101100;;;;
2022/10/10 05:01:00;;;;;;;2.1;1.9;;;;;;;8.1;100.0;101110;;;;
2022/10/10 05:02:02;;;;;;;2.1;1.9;;;;;;;8.1;100.0;101110;;;;
2022/10/10 05:03:00;;;;;;;2.1;1.9;;;;;;;8.0;100.0;101110;;;;
2022/10/10 05:04:00;;;;;;;2.1;1.9;;;;;;;8.0;100.0;101110;;;;
2022/10/10 05:05:00;;;;;;;2.1;1.9;;;;;;;8.0;100.0;101110;;;;
2022/10/10 05:06:00;;;;;;;2.1;1.9;;;;;;;8.0;100.0;101110;;;;
2022/10/10 05:07:00;;;;;;;2.1;1.9;;;;;;;8.0;100.0;101100;;;;
2022/10/10 05:08:00;;;;;;;2.1;1.9;;;;;;;8.0;100.0;101100;;;;
2022/10/10 05:09:00;;;;;;;2.1;1.9;;;;;;;8.0;100.0;101100;;;;
2022/10/10 05:10:00;;;;;;;2.1;1.9;;;;;;;8.0;100.0;101100;;;;
2022/10/10 05:11:00;;;;;;;2.1;1.9;;;;;;;8.0;100.0;101100;;;;
2022/10/10 05:12:00;;;;;;;2.1;1.9;;;;;;;8.0;100.0;101100;;;;
2022/10/10 05:13:00;;;;;;;2.1;1.9;;;;;;;8.1;100.0;101100;;;;
2022/10/10 05:14:00;;;;;;;2.1;1.9;;;;;;;8.1;100.0;101100;;;;
2022/10/10 05:15:00;;;;;;;1.2;1.2;;;;;;;8.0;100.0;101100;;;;
2022/10/10 05:16:00;;;;;;;1.2;1.2;;;;;;;8.0;100.0;101100;;;;
2022/10/10 05:17:00;;;;;;;1.2;1.2;;;;;;;8.0;100.0;101100;;;;
2022/10/10 05:18:00;;;;;;;1.2;1.2;;;;;;;8.0;100.0;101100;;;;
2022/10/10 05:19:00;;;;;;;1.2;1.2;;;;;;;7.9;100.0;101090;;;;
2022/10/10 05:20:00;;;;;;;1.2;1.2;;;;;;;7.9;100.0;101090;;;;
2022/10/10 05:21:05;;;;;;;1.2;1.2;;;;;;;8.1;100.0;101100;;;;
2022/10/10 05:22:00;;;;;;;1.2;1.2;;;;;;;8.1;100.0;101100;;;;
2022/10/10 05:23:00;;;;;;;1.2;1.2;;;;;;;8.0;100.0;101100;;;;
2022/10/10 05:24:01;;;;;;;1.2;1.2;;;;;;;8.0;100.0;101100;;;;
2022/10/10 05:25:00;;;;;;;1.2;1.2;;;;;;;8.0;100.0;101100;;;;
2022/10/10 05:26:00;;;;;;;1.2;1.2;;;;;;;8.0;100.0;101100;;;;
2022/10/10 05:27:00;;;;;;;1.2;1.2;;;;;;;7.9;100.0;101090;;;;
2022/10/10 05:28:00;;;;;;;1.2;1.2;;;;;;;7.9;100.0;101090;;;;
2022/10/10 05:29:00;;;;;;;1.2;1.2;;;;;;;7.9;100.0;101100;;;;
2022/10/10 05:30:00;;;;;;;1.2;1.2;;;;;;;7.9;100.0;101100;;;;
2022/10/10 05:31:00;;;;;;;1.2;1.2;;;;;;;7.9;100.0;101090;;;;
2022/10/10 05:32:00;;;;;;;1.2;1.2;;;;;;;7.9;100.0;101090;;;;
2022/10/10 05:33:00;;;;;;;1.2;1.2;;;;;;;7.9;100.0;101100;;;;
2022/10/10 05:34:00;;;;;;;1.2;1.2;;;;;;;7.9;100.0;101100;;;;
2022/10/10 05:35:00;;;;;;;1.5;1.5;;;;;;;7.9;100.0;101100;;;;
2022/10/10 05:36:01;;;;;;;1.5;1.5;;;;;;;7.9;100.0;101100;;;;
2022/10/10 05:37:00;;;;;;;1.5;1.5;;;;;;;7.9;100.0;101100;;;;
2022/10/10 05:38:00;;;;;;;1.5;1.5;;;;;;;7.9;100.0;101100;;;;
2022/10/10 05:39:01;;;;;;;1.5;1.5;;;;;;;7.9;100.0;101100;;;;
2022/10/10 05:40:00;;;;;;;1.5;1.5;;;;;;;7.9;100.0;101100;;;;
2022/10/10 05:41:00;;;;;;;1.5;1.5;;;;;;;7.9;100.0;101100;;;;
2022/10/10 05:42:00;;;;;;;1.5;1.5;;;;;;;7.9;100.0;101100;;;;
2022/10/10 05:43:00;;;;;;;1.5;1.5;;;;;;;8.0;100.0;101100;;;;
2022/10/10 05:44:00;;;;;;;1.5;1.5;;;;;;;8.0;100.0;101100;;;;
2022/10/10 05:45:00;;;;;;;1.5;1.5;;;;;;;8.0;100.0;101100;;;;
2022/10/10 05:46:00;;;;;;;1.5;1.5;;;;;;;8.0;100.0;101100;;;;
2022/10/10 05:47:00;;;;;;;1.5;1.5;;;;;;;7.9;100.0;101100;;;;
2022/10/10 05:48:00;;;;;;;1.5;1.5;;;;;;;7.9;100.0;101100;;;;
2022/10/10 05:49:00;;;;;;;1.5;1.5;;;;;;;7.9;100.0;101100;;;;
2022/10/10 05:50:00;;;;;;;1.5;1.5;;;;;;;7.9;100.0;101100;;;;
2022/10/10 05:51:00;;;;;;;1.5;1.5;;;;;;;7.9;100.0;101100;;;;
2022/10/10 05:52:00;;;;;;;1.5;1.5;;;;;;;7.9;100.0;101100;;;;
2022/10/10 05:53:00;;;;;;;1.5;1.5;;;;;;;7.9;100.0;101100;;;;
2022/10/10 05:54:00;;;;;;;1.5;1.5;;;;;;;7.9;100.0;101100;;;;
2022/10/10 05:55:00;;;;;;;1.4;1.4;;;;;;;8.0;100.0;101100;;;;
2022/10/10 05:56:00;;;;;;;1.4;1.4;;;;;;;8.0;100.0;101100;;;;
2022/10/10 05:57:00;;;;;;;1.4;1.4;;;;;;;8.0;100.0;101100;;;;
2022/10/10 05:58:00;;;;;;;1.4;1.4;;;;;;;8.0;100.0;101100;;;;
2022/10/10 05:59:00;;;;;;;1.4;1.4;;;;;;;8.0;100.0;101100;;;;
2022/10/10 06:00:00;;;;;;;1.4;1.4;;;;;;;8.0;100.0;101100;;;;
2022/10/10 06:01:04;;;;;;;1.4;1.4;;;;;;;7.8;100.0;101090;;;;
2022/10/10 06:02:00;;;;;;;1.4;1.4;;;;;;;7.8;100.0;101090;;;;
2022/10/10 06:03:01;;;;;;;1.4;1.4;;;;;;;7.9;100.0;101100;;;;
2022/10/10 06:04:00;;;;;;;1.4;1.4;;;;;;;7.9;100.0;101100;;;;
2022/10/10 06:05:00;;;;;;;1.4;1.4;;;;;;;7.9;100.0;101100;;;;
2022/10/10 06:06:00;;;;;;;1.4;1.4;;;;;;;7.9;100.0;101100;;;;
2022/10/10 06:07:00;;;;;;;1.4;1.4;;;;;;;7.9;100.0;101100;;;;
2022/10/10 06:08:10;;;;;;;1.4;1.4;;;;;;;7.9;100.0;101100;;;;
2022/10/10 06:09:00;;;;;;;1.4;1.4;;;;;;;7.9;100.0;101100;;;;
2022/10/10 06:10:00;;;;;;;1.4;1.4;;;;;;;7.9;100.0;101100;;;;
2022/10/10 06:11:01;;;;;;;1.4;1.4;;;;;;;7.9;100.0;101100;;;;
2022/10/10 06:12:00;;;;;;;1.4;1.4;;;;;;;7.9;100.0;101100;;;;
2022/10/10 06:13:00;;;;;;;1.4;1.4;;;;;;;8.0;100.0;101100;;;;
2022/10/10 06:14:00;;;;;;;1.4;1.4;;;;;;;8.0;100.0;101100;;;;
2022/10/10 06:15:00;;;;;;;1.4;1.4;;;;;;;8.0;100.0;101100;;;;
2022/10/10 06:16:00;;;;;;;1.4;1.4;;;;;;;8.0;100.0;101100;;;;
2022/10/10 06:17:00;;;;;;;1.4;1.4;;;;;;;8.0;100.0;101100;;;;
2022/10/10 06:18:00;;;;;;;1.4;1.4;;;;;;;8.0;100.0;101100;;;;
2022/10/10 06:19:00;;;;;;;1.4;1.4;;;;;;;8.0;100.0;101110;;;;
2022/10/10 06:20:00;;;;;;;1.4;1.4;;;;;;;8.0;100.0;101110;;;;
2022/10/10 06:21:01;;;;;;;1.4;1.4;;;;;;;8.0;100.0;101100;;;;
2022/10/10 06:22:00;;;;;;;1.4;1.4;;;;;;;8.0;100.0;101100;;;;
2022/10/10 06:23:00;;;;;;;1.4;1.4;;;;;;;8.0;100.0;101110;;;;
2022/10/10 06:24:00;;;;;;;1.4;1.4;;;;;;;8.0;100.0;101110;;;;
2022/10/10 06:25:00;;;;;;;1.4;1.4;;;;;;;8.1;100.0;101110;;;;
2022/10/10 06:26:00;;;;;;;1.4;1.4;;;;;;;8.1;100.0;101110;;;;
2022/10/10 06:27:00;;;;;;;1.4;1.4;;;;;;;8.1;100.0;101110;;;;
2022/10/10 06:28:00;;;;;;;1.4;1.4;;;;;;;8.1;100.0;101110;;;;